createdAt,value
2019-04-16T00:00:47.740Z,7.93
2019-04-16T00:01:47.724Z,7.93
2019-04-16T00:02:48.516Z,7.90
2019-04-16T00:03:47.731Z,7.83
2019-04-16T00:04:47.694Z,7.86
2019-04-16T00:05:47.684Z,7.86
2019-04-16T00:06:47.671Z,7.83
2019-04-16T00:07:47.660Z,7.86
2019-04-16T00:08:47.649Z,7.87
2019-04-16T00:09:47.650Z,7.83
2019-04-16T00:10:47.629Z,7.87
2019-04-16T00:11:47.617Z,7.75
2019-04-16T00:12:47.600Z,7.71
2019-04-16T00:13:47.589Z,7.71
2019-04-16T00:14:47.598Z,7.69
2019-04-16T00:15:47.565Z,7.58
2019-04-16T00:16:47.556Z,7.58
2019-04-16T00:17:48.121Z,7.63
2019-04-16T00:18:57.338Z,7.61
2019-04-16T00:19:48.553Z,7.60
2019-04-16T00:20:47.513Z,7.57
2019-04-16T00:21:47.498Z,7.58
2019-04-16T00:22:47.489Z,7.58
2019-04-16T00:23:47.478Z,7.63
2019-04-16T00:24:47.470Z,7.63
2019-04-16T00:25:47.483Z,7.63
2019-04-16T00:26:47.445Z,7.60
2019-04-16T00:27:47.433Z,7.63
2019-04-16T00:28:47.421Z,7.60
2019-04-16T00:29:47.411Z,7.64
2019-04-16T00:30:47.405Z,7.75
2019-04-16T00:31:47.421Z,7.61
2019-04-16T00:32:47.378Z,7.79
2019-04-16T00:33:47.369Z,7.72
2019-04-16T00:34:47.354Z,7.75
2019-04-16T00:35:47.345Z,7.71
2019-04-16T00:36:48.797Z,7.71
2019-04-16T00:37:51.386Z,7.71
2019-04-16T00:38:47.310Z,7.61
2019-04-16T00:39:47.299Z,7.60
2019-04-16T00:40:47.290Z,7.60
2019-04-16T00:41:47.276Z,7.58
2019-04-16T00:42:47.301Z,7.60
2019-04-16T00:43:47.253Z,7.61
2019-04-16T00:44:47.241Z,7.58
2019-04-16T00:45:47.232Z,7.58
2019-04-16T00:46:47.219Z,7.63
2019-04-16T00:47:47.926Z,7.69
2019-04-16T00:48:47.232Z,7.63
2019-04-16T00:49:47.188Z,7.68
2019-04-16T00:50:47.176Z,7.63
2019-04-16T00:51:47.164Z,7.61
2019-04-16T00:52:47.153Z,7.64
2019-04-16T00:53:47.141Z,7.58
2019-04-16T00:54:47.147Z,7.69
2019-04-16T00:55:47.120Z,7.61
2019-04-16T00:56:47.566Z,7.58
2019-04-16T00:57:48.608Z,7.58
2019-04-16T00:58:49.383Z,7.55
2019-04-16T00:59:47.103Z,7.58
2019-04-16T01:00:47.063Z,7.60
2019-04-16T01:01:47.053Z,7.52
2019-04-16T01:02:47.188Z,7.53
2019-04-16T01:03:47.032Z,7.49
2019-04-16T01:04:47.018Z,7.52
2019-04-16T01:05:47.036Z,7.50
2019-04-16T01:06:46.997Z,7.60
2019-04-16T01:07:46.985Z,7.50
2019-04-16T01:08:54.350Z,7.50
2019-04-16T01:09:47.961Z,7.49
2019-04-16T01:10:46.951Z,7.50
2019-04-16T01:11:48.890Z,7.40
2019-04-16T01:12:46.933Z,7.30
2019-04-16T01:13:46.918Z,7.21
2019-04-16T01:14:46.911Z,7.23
2019-04-16T01:15:46.895Z,7.12
2019-04-16T01:16:46.884Z,7.09
2019-04-16T01:17:46.889Z,7.09
2019-04-16T01:18:46.869Z,7.07
2019-04-16T01:19:46.852Z,7.06
2019-04-16T01:20:46.843Z,6.99
2019-04-16T01:21:46.829Z,6.95
2019-04-16T01:22:47.541Z,6.99
2019-04-16T01:23:49.365Z,7.03
2019-04-16T01:24:51.401Z,6.92
2019-04-16T01:25:47.784Z,6.92
2019-04-16T01:26:46.773Z,7.02
2019-04-16T01:27:46.761Z,7.09
2019-04-16T01:28:46.780Z,7.06
2019-04-16T01:29:46.740Z,6.99
2019-04-16T01:30:46.728Z,6.94
2019-04-16T01:31:46.716Z,6.97
2019-04-16T01:32:46.707Z,6.88
2019-04-16T01:33:47.420Z,6.88
2019-04-16T01:34:48.329Z,6.89
2019-04-16T01:35:51.218Z,6.92
2019-04-16T01:36:46.664Z,6.91
2019-04-16T01:37:46.650Z,6.89
2019-04-16T01:38:46.639Z,6.97
2019-04-16T01:39:47.769Z,6.98
2019-04-16T01:40:47.379Z,7.06
2019-04-16T01:41:46.609Z,6.98
2019-04-16T01:42:46.595Z,6.95
2019-04-16T01:43:46.582Z,6.92
2019-04-16T01:44:46.571Z,6.99
2019-04-16T01:45:46.588Z,6.99
2019-04-16T01:46:46.548Z,6.91
2019-04-16T01:47:46.542Z,6.92
2019-04-16T01:48:46.534Z,6.85
2019-04-16T01:49:46.515Z,6.81
2019-04-16T01:50:46.503Z,6.73
2019-04-16T01:51:47.441Z,6.70
2019-04-16T01:52:49.499Z,6.70
2019-04-16T01:53:46.475Z,6.73
2019-04-16T01:54:46.458Z,6.71
2019-04-16T01:55:46.448Z,6.67
2019-04-16T01:56:46.436Z,6.71
2019-04-16T01:57:46.463Z,6.71
2019-04-16T01:58:46.423Z,6.67
2019-04-16T01:59:46.407Z,6.62
2019-04-16T02:00:46.391Z,6.67
2019-04-16T02:01:46.382Z,6.69
2019-04-16T02:02:47.033Z,6.67
2019-04-16T02:03:48.842Z,6.70
2019-04-16T02:04:51.515Z,6.69
2019-04-16T02:05:47.334Z,6.69
2019-04-16T02:06:46.324Z,6.71
2019-04-16T02:07:46.312Z,6.74
2019-04-16T02:08:46.329Z,6.70
2019-04-16T02:09:46.290Z,6.73
2019-04-16T02:10:46.280Z,6.74
2019-04-16T02:11:46.268Z,6.71
2019-04-16T02:12:46.257Z,6.74
2019-04-16T02:13:53.910Z,6.69
2019-04-16T02:14:47.385Z,6.62
2019-04-16T02:15:46.224Z,6.69
2019-04-16T02:16:46.213Z,6.66
2019-04-16T02:17:46.203Z,6.67
2019-04-16T02:18:46.193Z,6.71
2019-04-16T02:19:46.205Z,6.64
2019-04-16T02:20:54.462Z,6.62
2019-04-16T02:21:46.155Z,6.62
2019-04-16T02:22:46.145Z,6.69
2019-04-16T02:23:48.127Z,6.62
2019-04-16T02:24:47.847Z,6.64
2019-04-16T02:25:48.476Z,6.61
2019-04-16T02:26:47.097Z,6.66
2019-04-16T02:27:46.086Z,6.69
2019-04-16T02:28:46.076Z,6.66
2019-04-16T02:29:46.067Z,6.69
2019-04-16T02:30:46.083Z,6.67
2019-04-16T02:31:48.037Z,6.67
2019-04-16T02:32:47.031Z,6.69
2019-04-16T02:33:46.021Z,6.70
2019-04-16T02:34:46.011Z,6.70
2019-04-16T02:35:45.999Z,6.67
2019-04-16T02:36:46.014Z,6.61
2019-04-16T02:37:45.981Z,6.64
2019-04-16T02:38:52.394Z,6.56
2019-04-16T02:39:48.813Z,6.51
2019-04-16T02:40:51.328Z,6.55
2019-04-16T02:41:46.958Z,6.52
2019-04-16T02:42:45.918Z,6.61
2019-04-16T02:43:45.908Z,6.55
2019-04-16T02:44:50.127Z,6.55
2019-04-16T02:45:45.886Z,6.56
2019-04-16T02:46:45.876Z,6.55
2019-04-16T02:47:45.878Z,6.56
2019-04-16T02:48:50.316Z,6.58
2019-04-16T02:49:46.839Z,6.59
2019-04-16T02:50:45.830Z,6.46
2019-04-16T02:51:45.817Z,6.49
2019-04-16T02:52:50.461Z,6.55
2019-04-16T02:53:46.795Z,6.49
2019-04-16T02:54:45.786Z,6.56
2019-04-16T02:55:45.776Z,6.51
2019-04-16T02:56:51.691Z,6.55
2019-04-16T02:57:46.775Z,6.54
2019-04-16T02:58:45.738Z,6.56
2019-04-16T02:59:47.398Z,6.55
2019-04-16T03:00:49.140Z,6.48
2019-04-16T03:01:45.707Z,6.54
2019-04-16T03:02:45.693Z,6.54
2019-04-16T03:03:45.697Z,6.52
2019-04-16T03:04:45.671Z,6.55
2019-04-16T03:05:45.663Z,6.49
2019-04-16T03:06:45.653Z,6.43
2019-04-16T03:07:45.636Z,6.37
2019-04-16T03:08:45.654Z,6.40
2019-04-16T03:09:45.614Z,6.48
2019-04-16T03:10:45.602Z,6.37
2019-04-16T03:11:48.448Z,6.41
2019-04-16T03:12:45.582Z,6.38
2019-04-16T03:13:45.571Z,6.40
2019-04-16T03:14:45.591Z,6.25
2019-04-16T03:15:45.546Z,6.21
2019-04-16T03:16:45.537Z,6.19
2019-04-16T03:17:45.524Z,6.22
2019-04-16T03:18:47.381Z,6.18
2019-04-16T03:19:45.500Z,6.27
2019-04-16T03:20:45.516Z,6.30
2019-04-16T03:21:45.480Z,6.27
2019-04-16T03:22:45.473Z,6.33
2019-04-16T03:23:45.457Z,6.25
2019-04-16T03:24:45.444Z,6.27
2019-04-16T03:25:45.432Z,6.17
2019-04-16T03:26:47.672Z,6.30
2019-04-16T03:27:45.420Z,6.30
2019-04-16T03:28:45.399Z,6.25
2019-04-16T03:29:45.391Z,6.18
2019-04-16T03:30:45.378Z,6.14
2019-04-16T03:31:45.397Z,6.30
2019-04-16T03:32:45.355Z,6.22
2019-04-16T03:33:50.595Z,6.22
2019-04-16T03:34:46.330Z,6.15
2019-04-16T03:35:45.322Z,6.28
2019-04-16T03:36:45.313Z,6.27
2019-04-16T03:37:45.335Z,6.30
2019-04-16T03:38:45.291Z,6.25
2019-04-16T03:39:45.276Z,6.31
2019-04-16T03:40:45.263Z,6.25
2019-04-16T03:41:45.256Z,6.25
2019-04-16T03:42:45.293Z,6.21
2019-04-16T03:43:45.258Z,6.18
2019-04-16T03:44:45.217Z,6.19
2019-04-16T03:45:45.208Z,6.22
2019-04-16T03:46:46.865Z,6.19
2019-04-16T03:47:45.184Z,6.19
2019-04-16T03:48:45.173Z,6.21
2019-04-16T03:49:45.178Z,6.21
2019-04-16T03:50:45.150Z,6.11
2019-04-16T03:51:45.139Z,6.15
2019-04-16T03:52:45.804Z,6.14
2019-04-16T03:53:46.535Z,6.11
2019-04-16T03:54:45.135Z,6.08
2019-04-16T03:55:45.096Z,6.08
2019-04-16T03:56:45.083Z,6.03
2019-04-16T03:57:45.071Z,6.08
2019-04-16T03:58:45.062Z,6.09
2019-04-16T03:59:45.050Z,6.06
2019-04-16T04:00:45.146Z,6.08
2019-04-16T04:01:46.123Z,6.00
2019-04-16T04:02:45.016Z,5.97
2019-04-16T04:03:45.006Z,5.96
2019-04-16T04:04:44.993Z,5.94
2019-04-16T04:05:44.982Z,5.94
2019-04-16T04:06:44.993Z,5.85
2019-04-16T04:07:45.137Z,5.81
2019-04-16T04:08:47.994Z,5.82
2019-04-16T04:09:44.941Z,5.86
2019-04-16T04:10:44.926Z,5.91
2019-04-16T04:11:44.946Z,5.82
2019-04-16T04:12:45.871Z,5.94
2019-04-16T04:13:49.675Z,5.94
2019-04-16T04:14:45.886Z,5.89
2019-04-16T04:15:44.871Z,5.78
2019-04-16T04:16:44.858Z,5.76
2019-04-16T04:17:44.872Z,5.78
2019-04-16T04:18:44.838Z,5.83
2019-04-16T04:19:46.283Z,5.89
2019-04-16T04:20:49.652Z,5.90
2019-04-16T04:21:45.801Z,5.82
2019-04-16T04:22:44.791Z,5.83
2019-04-16T04:23:44.804Z,5.90
2019-04-16T04:24:44.766Z,5.83
2019-04-16T04:25:44.768Z,5.85
2019-04-16T04:26:44.746Z,5.89
2019-04-16T04:27:46.672Z,5.78
2019-04-16T04:28:44.753Z,5.85
2019-04-16T04:29:46.515Z,5.79
2019-04-16T04:30:44.703Z,5.85
2019-04-16T04:31:44.687Z,5.89
2019-04-16T04:32:47.382Z,6.00
2019-04-16T04:33:44.665Z,5.93
2019-04-16T04:34:45.411Z,5.94
2019-04-16T04:35:44.641Z,5.81
2019-04-16T04:36:44.629Z,5.76
2019-04-16T04:37:44.620Z,5.79
2019-04-16T04:38:44.609Z,5.79
2019-04-16T04:39:44.841Z,5.75
2019-04-16T04:40:45.064Z,5.68
2019-04-16T04:41:45.573Z,5.74
2019-04-16T04:42:44.568Z,5.64
2019-04-16T04:43:44.557Z,5.71
2019-04-16T04:44:47.004Z,5.68
2019-04-16T04:45:44.535Z,5.65
2019-04-16T04:46:46.161Z,5.53
2019-04-16T04:47:44.507Z,5.64
2019-04-16T04:48:44.496Z,5.71
2019-04-16T04:49:44.483Z,5.72
2019-04-16T04:50:44.473Z,5.78
2019-04-16T04:51:44.489Z,5.65
2019-04-16T04:52:46.146Z,5.71
2019-04-16T04:53:44.444Z,5.68
2019-04-16T04:54:44.428Z,5.71
2019-04-16T04:55:44.416Z,5.78
2019-04-16T04:56:51.967Z,5.82
2019-04-16T04:57:52.562Z,5.81
2019-04-16T04:58:44.386Z,5.79
2019-04-16T04:59:52.598Z,5.79
2019-04-16T05:00:44.367Z,5.74
2019-04-16T05:01:44.349Z,5.81
2019-04-16T05:02:51.921Z,5.96
2019-04-16T05:03:47.136Z,6.03
2019-04-16T05:04:44.313Z,6.00
2019-04-16T05:05:44.303Z,6.08
2019-04-16T05:06:44.302Z,6.09
2019-04-16T05:07:44.284Z,6.17
2019-04-16T05:08:44.295Z,6.08
2019-04-16T05:09:44.259Z,6.17
2019-04-16T05:10:58.015Z,6.15
2019-04-16T05:11:48.379Z,6.21
2019-04-16T05:12:44.226Z,6.22
2019-04-16T05:13:44.214Z,6.30
2019-04-16T05:14:44.219Z,6.22
2019-04-16T05:15:44.190Z,6.19
2019-04-16T05:16:44.178Z,6.25
2019-04-16T05:17:44.171Z,6.14
2019-04-16T05:18:44.155Z,6.22
2019-04-16T05:19:44.541Z,6.22
2019-04-16T05:20:46.754Z,6.30
2019-04-16T05:21:44.123Z,6.30
2019-04-16T05:22:44.115Z,6.49
2019-04-16T05:23:44.099Z,6.48
2019-04-16T05:24:44.089Z,6.51
2019-04-16T05:25:44.109Z,6.54
2019-04-16T05:26:44.065Z,6.54
2019-04-16T05:27:44.052Z,6.54
2019-04-16T05:28:45.393Z,6.56
2019-04-16T05:29:48.330Z,6.62
2019-04-16T05:30:45.047Z,6.66
2019-04-16T05:31:44.011Z,6.55
2019-04-16T05:32:44.001Z,6.38
2019-04-16T05:33:43.988Z,6.33
2019-04-16T05:34:43.978Z,6.38
2019-04-16T05:35:43.967Z,6.52
2019-04-16T05:36:47.718Z,6.51
2019-04-16T05:37:43.943Z,6.66
2019-04-16T05:38:43.930Z,6.77
2019-04-16T05:39:43.921Z,6.85
2019-04-16T05:40:43.907Z,6.88
2019-04-16T05:41:43.926Z,6.77
2019-04-16T05:42:43.885Z,6.80
2019-04-16T05:43:43.880Z,6.91
2019-04-16T05:44:43.867Z,7.05
2019-04-16T05:45:43.854Z,7.16
2019-04-16T05:47:36.490Z,7.34
2019-04-16T05:48:33.132Z,7.37
2019-04-16T05:49:33.124Z,7.40
2019-04-16T05:50:33.111Z,7.45
2019-04-16T05:51:33.107Z,7.61
2019-04-16T05:52:35.712Z,7.68
2019-04-16T05:53:33.074Z,7.69
2019-04-16T05:54:33.063Z,7.72
2019-04-16T05:55:33.051Z,7.63
2019-04-16T05:56:33.058Z,7.87
2019-04-16T05:57:33.029Z,7.86
2019-04-16T05:58:33.045Z,7.85
2019-04-16T05:59:33.790Z,8.00
2019-04-16T06:00:32.999Z,8.02
2019-04-16T06:01:32.984Z,8.08
2019-04-16T06:02:32.975Z,8.01
2019-04-16T06:03:32.959Z,8.01
2019-04-16T06:04:32.965Z,8.07
2019-04-16T06:05:32.940Z,8.22
2019-04-16T06:06:32.927Z,8.18
2019-04-16T06:07:37.691Z,8.15
2019-04-16T06:08:33.907Z,8.23
2019-04-16T06:09:32.924Z,8.33
2019-04-16T06:10:32.882Z,8.34
2019-04-16T06:11:36.539Z,8.45
2019-04-16T06:12:32.861Z,8.58
2019-04-16T06:13:32.850Z,8.66
2019-04-16T06:14:32.836Z,8.77
2019-04-16T06:15:35.750Z,8.87
2019-04-16T06:16:32.814Z,8.92
2019-04-16T06:17:32.952Z,8.89
2019-04-16T06:18:37.133Z,9.02
2019-04-16T06:19:33.779Z,9.15
2019-04-16T06:20:32.769Z,9.23
2019-04-16T06:21:32.789Z,9.26
2019-04-16T06:22:32.746Z,9.24
2019-04-16T06:23:32.803Z,9.38
2019-04-16T06:24:35.853Z,9.50
2019-04-16T06:25:32.713Z,9.60
2019-04-16T06:26:32.700Z,9.58
2019-04-16T06:27:32.718Z,9.58
2019-04-16T06:28:32.685Z,9.68
2019-04-16T06:29:32.670Z,9.75
2019-04-16T06:30:34.007Z,9.71
2019-04-16T06:31:32.644Z,9.71
2019-04-16T06:32:32.635Z,9.79
2019-04-16T06:33:32.671Z,9.78
2019-04-16T06:34:32.613Z,9.96
2019-04-16T06:35:42.924Z,10.02
2019-04-16T06:36:33.588Z,9.93
2019-04-16T06:37:32.575Z,10.05
2019-04-16T06:38:32.568Z,10.04
2019-04-16T06:39:32.584Z,10.01
2019-04-16T06:40:32.837Z,10.08
2019-04-16T06:41:41.557Z,10.25
2019-04-16T06:42:33.521Z,10.20
2019-04-16T06:43:32.508Z,10.01
2019-04-16T06:44:34.985Z,9.93
2019-04-16T06:45:36.546Z,9.87
2019-04-16T06:46:32.473Z,10.02
2019-04-16T06:47:32.462Z,10.12
2019-04-16T06:48:32.450Z,9.97
2019-04-16T06:49:34.525Z,10.05
2019-04-16T06:50:39.479Z,10.34
2019-04-16T06:51:33.418Z,10.27
2019-04-16T06:52:32.404Z,10.41
2019-04-16T06:53:32.396Z,10.47
2019-04-16T06:54:33.137Z,10.52
2019-04-16T06:55:35.168Z,10.55
2019-04-16T06:56:32.363Z,10.67
2019-04-16T06:57:32.347Z,10.88
2019-04-16T06:58:49.902Z,10.99
2019-04-16T06:59:33.330Z,11.06
2019-04-16T07:00:35.080Z,11.07
2019-04-16T07:01:36.820Z,11.15
2019-04-16T07:02:37.207Z,10.94
2019-04-16T07:03:32.645Z,11.06
2019-04-16T07:04:32.268Z,10.88
2019-04-16T07:05:33.171Z,10.92
2019-04-16T07:06:35.900Z,11.10
2019-04-16T07:07:39.624Z,11.15
2019-04-16T07:08:38.067Z,11.11
2019-04-16T07:09:41.320Z,11.32
2019-04-16T07:10:44.090Z,11.35
2019-04-16T07:11:33.215Z,11.60
2019-04-16T07:12:34.858Z,11.64
2019-04-16T07:13:33.166Z,11.73
2019-04-16T07:14:32.157Z,11.64
2019-04-16T07:15:32.144Z,11.91
2019-04-16T07:16:32.196Z,12.05
2019-04-16T07:17:33.712Z,12.13
2019-04-16T07:18:32.109Z,12.37
2019-04-16T07:19:32.099Z,12.59
2019-04-16T07:20:32.088Z,12.87
2019-04-16T07:21:32.074Z,12.78
2019-04-16T07:22:32.199Z,12.74
2019-04-16T07:23:32.052Z,12.46
2019-04-16T07:24:36.082Z,12.42
2019-04-16T07:25:35.394Z,12.45
2019-04-16T07:26:33.120Z,12.49
2019-04-16T07:27:35.055Z,12.59
2019-04-16T07:28:33.100Z,12.77
2019-04-16T07:29:33.400Z,12.93
2019-04-16T07:30:32.060Z,12.85
2019-04-16T07:31:33.954Z,12.93
2019-04-16T07:32:31.952Z,13.00
2019-04-16T07:33:31.940Z,13.05
2019-04-16T07:34:31.954Z,13.23
2019-04-16T07:35:31.917Z,13.26
2019-04-16T07:36:31.903Z,13.29
2019-04-16T07:37:33.174Z,13.04
2019-04-16T07:38:35.175Z,13.01
2019-04-16T07:39:36.970Z,12.72
2019-04-16T07:40:32.887Z,12.67
2019-04-16T07:41:31.847Z,12.74
2019-04-16T07:42:31.836Z,12.68
2019-04-16T07:43:31.955Z,12.87
2019-04-16T07:44:31.811Z,12.79
2019-04-16T07:45:31.799Z,12.86
2019-04-16T07:46:31.817Z,12.89
2019-04-16T07:47:31.785Z,12.71
2019-04-16T07:48:32.934Z,12.82
2019-04-16T07:49:31.758Z,12.95
2019-04-16T07:50:32.279Z,13.05
2019-04-16T07:51:35.828Z,13.15
2019-04-16T07:52:31.752Z,13.26
2019-04-16T07:53:31.709Z,13.44
2019-04-16T07:54:31.704Z,13.54
2019-04-16T07:55:31.687Z,13.77
2019-04-16T07:56:31.675Z,13.85
2019-04-16T07:57:31.669Z,13.81
2019-04-16T07:58:31.689Z,13.89
2019-04-16T07:59:32.350Z,13.89
2019-04-16T08:00:31.630Z,14.02
2019-04-16T08:01:31.621Z,13.99
2019-04-16T08:02:31.610Z,13.99
2019-04-16T08:03:31.597Z,14.10
2019-04-16T08:04:35.286Z,14.22
2019-04-16T08:05:31.575Z,14.35
2019-04-16T08:06:31.565Z,14.51
2019-04-16T08:07:31.555Z,14.45
2019-04-16T08:08:31.541Z,14.58
2019-04-16T08:09:33.624Z,14.42
2019-04-16T08:10:31.552Z,14.51
2019-04-16T08:11:31.517Z,14.52
2019-04-16T08:12:31.496Z,14.52
2019-04-16T08:13:33.653Z,14.50
2019-04-16T08:14:31.474Z,14.28
2019-04-16T08:15:31.471Z,14.07
2019-04-16T08:16:31.482Z,14.10
2019-04-16T08:17:31.438Z,14.15
2019-04-16T08:18:31.430Z,14.32
2019-04-16T08:19:36.976Z,14.52
2019-04-16T08:20:32.406Z,14.57
2019-04-16T08:21:31.397Z,14.45
2019-04-16T08:22:31.422Z,14.51
2019-04-16T08:23:31.372Z,14.70
2019-04-16T08:24:31.361Z,14.80
2019-04-16T08:25:34.223Z,14.91
2019-04-16T08:26:31.344Z,14.98
2019-04-16T08:27:31.326Z,15.06
2019-04-16T08:28:31.343Z,14.96
2019-04-16T08:29:31.302Z,14.86
2019-04-16T08:30:34.614Z,14.77
2019-04-16T08:31:33.261Z,14.52
2019-04-16T08:32:31.268Z,14.29
2019-04-16T08:33:31.257Z,14.22
2019-04-16T08:34:31.277Z,14.27
2019-04-16T08:35:31.234Z,14.35
2019-04-16T08:36:31.220Z,14.20
2019-04-16T08:37:31.215Z,14.03
2019-04-16T08:38:34.070Z,14.02
2019-04-16T08:39:31.193Z,14.03
2019-04-16T08:40:31.205Z,14.12
2019-04-16T08:41:31.164Z,14.10
2019-04-16T08:42:43.977Z,14.22
2019-04-16T08:43:32.146Z,14.46
2019-04-16T08:44:35.320Z,14.46
2019-04-16T08:45:31.117Z,14.50
2019-04-16T08:46:31.137Z,14.61
2019-04-16T08:47:31.097Z,14.70
2019-04-16T08:48:31.090Z,14.69
2019-04-16T08:49:31.084Z,14.70
2019-04-16T08:50:31.061Z,14.77
2019-04-16T08:51:31.383Z,14.94
2019-04-16T08:52:32.116Z,14.99
2019-04-16T08:53:35.422Z,15.09
2019-04-16T08:54:31.021Z,15.16
2019-04-16T08:55:31.001Z,15.20
2019-04-16T08:56:30.989Z,15.34
2019-04-16T08:57:32.151Z,15.39
2019-04-16T08:58:31.001Z,15.56
2019-04-16T08:59:30.955Z,15.43
2019-04-16T09:00:30.943Z,15.56
2019-04-16T09:01:30.939Z,15.57
2019-04-16T09:02:30.921Z,15.72
2019-04-16T09:03:30.910Z,15.82
2019-04-16T09:04:33.990Z,15.54
2019-04-16T09:05:30.886Z,15.64
2019-04-16T09:06:30.876Z,15.62
2019-04-16T09:07:30.866Z,15.74
2019-04-16T09:08:30.852Z,15.54
2019-04-16T09:09:30.840Z,15.53
2019-04-16T09:10:31.107Z,15.74
2019-04-16T09:11:35.083Z,15.87
2019-04-16T09:12:31.888Z,15.83
2019-04-16T09:13:30.793Z,15.72
2019-04-16T09:14:30.784Z,15.87
2019-04-16T09:15:30.785Z,16.01
2019-04-16T09:16:30.792Z,16.20
2019-04-16T09:17:30.752Z,16.34
2019-04-16T09:18:30.736Z,16.52
2019-04-16T09:19:30.724Z,16.50
2019-04-16T09:20:30.720Z,16.34
2019-04-16T09:21:30.705Z,16.14
2019-04-16T09:22:30.723Z,16.01
2019-04-16T09:23:30.683Z,16.02
2019-04-16T09:24:30.670Z,15.92
2019-04-16T09:25:30.661Z,15.94
2019-04-16T09:26:30.650Z,16.05
2019-04-16T09:27:34.013Z,16.30
2019-04-16T09:28:31.894Z,16.49
2019-04-16T09:29:30.619Z,16.45
2019-04-16T09:30:30.609Z,16.48
2019-04-16T09:31:30.594Z,16.71
2019-04-16T09:32:30.584Z,17.00
2019-04-16T09:33:33.555Z,17.11
2019-04-16T09:34:30.584Z,17.33
2019-04-16T09:35:30.545Z,17.58
2019-04-16T09:36:30.534Z,17.58
2019-04-16T09:37:30.522Z,18.00
2019-04-16T09:38:30.512Z,18.47
2019-04-16T09:39:30.499Z,19.07
2019-04-16T09:40:30.695Z,19.59
2019-04-16T09:41:30.481Z,19.41
2019-04-16T09:42:30.468Z,19.51
2019-04-16T09:43:30.458Z,19.47
2019-04-16T09:44:33.587Z,19.28
2019-04-16T09:45:30.433Z,19.77
2019-04-16T09:46:50.563Z,20.42
2019-04-16T09:47:32.657Z,20.41
2019-04-16T09:48:34.448Z,21.14
2019-04-16T09:49:34.408Z,21.96
2019-04-16T09:50:31.375Z,22.73
2019-04-16T09:51:30.367Z,23.31
2019-04-16T09:52:30.382Z,23.73
2019-04-16T09:53:33.913Z,23.68
2019-04-16T09:54:31.336Z,23.68
2019-04-16T09:55:30.321Z,23.19
2019-04-16T09:56:30.589Z,22.54
2019-04-16T09:57:31.402Z,22.80
2019-04-16T09:58:30.316Z,22.97
2019-04-16T09:59:30.275Z,23.63
2019-04-16T10:00:30.266Z,24.49
2019-04-16T10:01:30.251Z,25.05
2019-04-16T10:02:30.246Z,24.80
2019-04-16T10:03:30.233Z,25.03
2019-04-16T10:04:30.249Z,25.35
2019-04-16T10:05:30.262Z,24.85
2019-04-16T10:06:30.195Z,24.77
2019-04-16T10:07:30.197Z,24.93
2019-04-16T10:08:30.199Z,25.33
2019-04-16T10:09:30.173Z,25.54
2019-04-16T10:10:30.179Z,25.64
2019-04-16T10:11:32.790Z,25.70
2019-04-16T10:12:31.134Z,26.02
2019-04-16T10:13:35.681Z,26.20
2019-04-16T10:14:31.123Z,26.17
2019-04-16T10:15:30.103Z,26.36
2019-04-16T10:16:30.123Z,26.55
2019-04-16T10:17:30.087Z,26.02
2019-04-16T10:18:34.697Z,25.46
2019-04-16T10:19:31.070Z,25.06
2019-04-16T10:20:30.042Z,24.91
2019-04-16T10:21:30.040Z,25.03
2019-04-16T10:22:30.055Z,25.40
2019-04-16T10:23:30.023Z,25.35
2019-04-16T10:24:30.001Z,25.00
2019-04-16T10:25:33.588Z,24.43
2019-04-16T10:26:29.975Z,24.67
2019-04-16T10:27:32.243Z,25.28
2019-04-16T10:28:29.981Z,25.40
2019-04-16T10:29:29.952Z,25.83
2019-04-16T10:30:30.374Z,24.77
2019-04-16T10:31:29.919Z,25.20
2019-04-16T10:32:29.916Z,25.73
2019-04-16T10:33:29.901Z,25.79
2019-04-16T10:34:29.918Z,26.17
2019-04-16T10:35:29.880Z,26.58
2019-04-16T10:36:29.883Z,27.09
2019-04-16T10:37:30.174Z,27.19
2019-04-16T10:38:29.840Z,27.03
2019-04-16T10:39:29.832Z,26.58
2019-04-16T10:40:29.864Z,26.28
2019-04-16T10:41:29.811Z,25.88
2019-04-16T10:42:29.797Z,25.67
2019-04-16T10:43:43.652Z,25.88
2019-04-16T10:44:30.793Z,26.25
2019-04-16T10:45:29.779Z,26.09
2019-04-16T10:46:29.779Z,26.26
2019-04-16T10:47:29.746Z,26.05
2019-04-16T10:48:29.730Z,25.67
2019-04-16T10:49:29.723Z,25.69
2019-04-16T10:50:29.719Z,26.30
2019-04-16T10:51:29.719Z,26.45
2019-04-16T10:52:29.721Z,26.57
2019-04-16T10:53:29.683Z,26.25
2019-04-16T10:54:29.665Z,26.32
2019-04-16T10:55:29.659Z,26.48
2019-04-16T10:56:29.660Z,26.52
2019-04-16T10:57:29.657Z,26.36
2019-04-16T10:58:29.673Z,26.30
2019-04-16T10:59:29.622Z,25.70
2019-04-16T11:00:29.631Z,25.43
2019-04-16T11:01:34.686Z,25.47
2019-04-16T11:02:30.578Z,26.02
2019-04-16T11:03:34.440Z,26.76
2019-04-16T11:04:30.588Z,26.29
2019-04-16T11:05:29.563Z,26.18
2019-04-16T11:06:29.534Z,26.62
2019-04-16T11:07:29.525Z,26.29
2019-04-16T11:08:29.524Z,26.39
2019-04-16T11:09:29.502Z,26.07
2019-04-16T11:10:29.542Z,25.05
2019-04-16T11:11:29.483Z,24.67
2019-04-16T11:12:29.470Z,25.30
2019-04-16T11:13:29.459Z,25.67
2019-04-16T11:14:29.464Z,26.28
2019-04-16T11:15:29.437Z,26.75
2019-04-16T11:16:29.454Z,27.36
2019-04-16T11:17:29.452Z,27.78
2019-04-16T11:18:29.405Z,27.87
2019-04-16T11:19:29.395Z,27.74
2019-04-16T11:20:29.408Z,27.65
2019-04-16T11:21:29.374Z,27.94
2019-04-16T11:22:29.395Z,27.87
2019-04-16T11:23:29.391Z,28.37
2019-04-16T11:24:29.342Z,28.73
2019-04-16T11:25:29.336Z,28.88
2019-04-16T11:26:29.321Z,28.52
2019-04-16T11:27:29.310Z,28.17
2019-04-16T11:28:29.349Z,28.21
2019-04-16T11:29:29.295Z,28.51
2019-04-16T11:30:29.282Z,28.00
2019-04-16T11:31:29.269Z,27.28
2019-04-16T11:32:29.277Z,26.33
2019-04-16T11:33:29.286Z,25.87
2019-04-16T11:34:29.272Z,25.40
2019-04-16T11:35:29.247Z,25.95
2019-04-16T11:36:30.951Z,26.55
2019-04-16T11:37:34.263Z,26.57
2019-04-16T11:38:30.189Z,26.36
2019-04-16T11:39:29.180Z,25.95
2019-04-16T11:40:29.205Z,25.33
2019-04-16T11:41:29.174Z,25.06
2019-04-16T11:42:29.187Z,25.46
2019-04-16T11:43:29.181Z,25.91
2019-04-16T11:44:29.167Z,26.26
2019-04-16T11:45:29.149Z,27.04
2019-04-16T11:46:29.133Z,27.51
2019-04-16T11:47:33.838Z,27.94
2019-04-16T11:48:30.085Z,28.18
2019-04-16T11:49:29.117Z,28.31
2019-04-16T11:50:29.082Z,28.30
2019-04-16T11:51:29.057Z,28.36
2019-04-16T11:52:29.115Z,28.56
2019-04-16T11:53:29.068Z,28.39
2019-04-16T11:54:29.046Z,28.11
2019-04-16T11:55:29.009Z,28.00
2019-04-16T11:56:28.999Z,28.18
2019-04-16T11:57:29.414Z,28.06
2019-04-16T11:58:29.021Z,27.94
2019-04-16T11:59:29.006Z,27.99
2019-04-16T12:00:28.965Z,27.21
2019-04-16T12:01:28.972Z,27.34
2019-04-16T12:02:28.972Z,27.55
2019-04-16T12:03:28.931Z,26.87
2019-04-16T12:04:28.974Z,27.02
2019-04-16T12:05:28.944Z,26.72
2019-04-16T12:06:29.030Z,25.57
2019-04-16T12:07:28.930Z,25.02
2019-04-16T12:08:28.884Z,25.32
2019-04-16T12:09:28.897Z,25.57
2019-04-16T12:10:28.907Z,26.33
2019-04-16T12:11:28.867Z,26.99
2019-04-16T12:12:28.872Z,26.76
2019-04-16T12:13:28.863Z,26.58
2019-04-16T12:14:34.127Z,26.15
2019-04-16T12:15:29.850Z,25.82
2019-04-16T12:16:28.788Z,25.46
2019-04-16T12:17:28.814Z,24.76
2019-04-16T12:18:31.795Z,24.06
2019-04-16T12:19:28.789Z,22.72
2019-04-16T12:20:28.793Z,22.05
2019-04-16T12:21:28.761Z,21.16
2019-04-16T12:22:28.761Z,20.69
2019-04-16T12:23:28.733Z,20.47
2019-04-16T12:24:28.749Z,20.26
2019-04-16T12:25:29.310Z,20.16
2019-04-16T12:26:28.717Z,19.99
2019-04-16T12:27:28.696Z,19.86
2019-04-16T12:28:28.692Z,19.71
2019-04-16T12:29:28.647Z,19.44
2019-04-16T12:30:28.642Z,19.36
2019-04-16T12:31:28.658Z,19.40
2019-04-16T12:32:28.648Z,19.39
2019-04-16T12:33:28.759Z,18.92
2019-04-16T12:34:28.599Z,18.87
2019-04-16T12:35:31.118Z,18.72
2019-04-16T12:36:29.581Z,18.63
2019-04-16T12:37:28.600Z,18.52
2019-04-16T12:38:28.565Z,18.36
2019-04-16T12:39:28.563Z,18.17
2019-04-16T12:40:28.550Z,18.07
2019-04-16T12:41:28.512Z,18.12
2019-04-16T12:42:28.545Z,17.92
2019-04-16T12:43:28.513Z,17.71
2019-04-16T12:44:28.533Z,17.58
2019-04-16T12:45:28.496Z,17.63
2019-04-16T12:46:28.467Z,17.58
2019-04-16T12:47:28.488Z,17.43
2019-04-16T12:48:28.484Z,17.30
2019-04-16T12:49:28.480Z,17.25
2019-04-16T12:50:28.429Z,17.26
2019-04-16T12:51:28.470Z,17.25
2019-04-16T12:52:28.400Z,17.25
2019-04-16T12:53:28.430Z,17.21
2019-04-16T12:54:28.368Z,17.18
2019-04-16T12:55:31.457Z,17.14
2019-04-16T12:56:28.385Z,17.01
2019-04-16T12:57:28.409Z,16.94
2019-04-16T12:58:28.322Z,16.94
2019-04-16T12:59:28.310Z,16.79
2019-04-16T13:00:31.514Z,16.70
2019-04-16T13:01:28.289Z,16.67
2019-04-16T13:02:28.277Z,16.78
2019-04-16T13:03:28.290Z,16.67
2019-04-16T13:04:28.252Z,16.58
2019-04-16T13:05:28.240Z,16.56
2019-04-16T13:06:28.231Z,16.48